FFT3983 KPHX-KLAS
Flight info
| Callsign | FFT3983 |
|---|---|
| Flight time | 0h 45m |
| Altitude | 28000 |
| Route | ZEPER2 RRSTA DCT ELLDA RKSTR4 |
| Aircraft | A21N/M-SDE2E3FGHIRWXY/LB1 |
Departure
| Time | 2026-05-06 22:26 |
|---|---|
| Airport | Phoenix Sky Harbor International Airport (KPHX) |
Arrival
| Time | 2026-05-06 23:12 |
|---|---|
| Airport | Harry Reid International Airport (KLAS) |
| Time | Latitude | Longitude | Altitude | Speed | Heading |
|---|---|---|---|---|---|
| 2026-05-06 22:04 | 33.43398 | -112.00873 | 1130 ft | 0 kts | 0° |
| 2026-05-06 22:11 | 33.43397 | -112.00873 | 1130 ft | 2 kts | 0° |
| 2026-05-06 22:11 | 33.43372 | -112.00874 | 1133 ft | 4 kts | 4° |
| 2026-05-06 22:11 | 33.43345 | -112.00877 | 1133 ft | 4 kts | 8° |
| 2026-05-06 22:12 | 33.43319 | -112.00883 | 1134 ft | 3 kts | 18° |
| 2026-05-06 22:12 | 33.43296 | -112.00897 | 1132 ft | 3 kts | 45° |
| 2026-05-06 22:12 | 33.43287 | -112.00915 | 1134 ft | 1 kts | 90° |
| 2026-05-06 22:12 | 33.43287 | -112.00920 | 1134 ft | 0 kts | 90° |
| 2026-05-06 22:18 | 33.43287 | -112.00908 | 1130 ft | 5 kts | 90° |
| 2026-05-06 22:18 | 33.43287 | -112.00839 | 1133 ft | 12 kts | 89° |
| 2026-05-06 22:18 | 33.43288 | -112.00717 | 1135 ft | 18 kts | 91° |
| 2026-05-06 22:18 | 33.43286 | -112.00546 | 1135 ft | 21 kts | 90° |
| 2026-05-06 22:19 | 33.43285 | -112.00351 | 1133 ft | 26 kts | 90° |
| 2026-05-06 22:19 | 33.43283 | -112.00107 | 1134 ft | 32 kts | 90° |
| 2026-05-06 22:19 | 33.43281 | -111.99817 | 1132 ft | 37 kts | 94° |
| 2026-05-06 22:19 | 33.43284 | -111.99578 | 1132 ft | 22 kts | 92° |
| 2026-05-06 22:20 | 33.43282 | -111.99466 | 1130 ft | 7 kts | 89° |
| 2026-05-06 22:20 | 33.43283 | -111.99398 | 1131 ft | 9 kts | 89° |
| 2026-05-06 22:20 | 33.43283 | -111.99350 | 1131 ft | 0 kts | 88° |
| 2026-05-06 22:20 | 33.43283 | -111.99351 | 1132 ft | 0 kts | 86° |
| 2026-05-06 22:21 | 33.43284 | -111.99321 | 1134 ft | 7 kts | 86° |
| 2026-05-06 22:21 | 33.43265 | -111.99247 | 1133 ft | 14 kts | 151° |
| 2026-05-06 22:21 | 33.43220 | -111.99255 | 1134 ft | 4 kts | 216° |
| 2026-05-06 22:21 | 33.43198 | -111.99275 | 1134 ft | 0 kts | 219° |
| 2026-05-06 22:23 | 33.43187 | -111.99286 | 1137 ft | 7 kts | 220° |
| 2026-05-06 22:23 | 33.43111 | -111.99374 | 1139 ft | 8 kts | 263° |
| 2026-05-06 22:24 | 33.43105 | -111.99406 | 1140 ft | 0 kts | 270° |
| 2026-05-06 22:25 | 33.43105 | -111.99423 | 1138 ft | 13 kts | 270° |
| 2026-05-06 22:26 | 33.43107 | -111.99918 | 1137 ft | 110 kts | 269° |
| 2026-05-06 22:26 | 33.43103 | -112.01235 | 1237 ft | 194 kts | 270° |
| 2026-05-06 22:26 | 33.43092 | -112.02829 | 2657 ft | 195 kts | 270° |
| 2026-05-06 22:26 | 33.43075 | -112.04512 | 3678 ft | 203 kts | 272° |
| 2026-05-06 22:27 | 33.43122 | -112.06242 | 4253 ft | 214 kts | 274° |
| 2026-05-06 22:27 | 33.43180 | -112.08074 | 4761 ft | 229 kts | 272° |
| 2026-05-06 22:27 | 33.43238 | -112.10049 | 5263 ft | 244 kts | 272° |
| 2026-05-06 22:27 | 33.43299 | -112.12103 | 5981 ft | 249 kts | 271° |
| 2026-05-06 22:28 | 33.43358 | -112.14162 | 6750 ft | 252 kts | 271° |
| 2026-05-06 22:28 | 33.43492 | -112.16292 | 7511 ft | 255 kts | 281° |
| 2026-05-06 22:28 | 33.44198 | -112.18205 | 8221 ft | 259 kts | 308° |
| 2026-05-06 22:28 | 33.45603 | -112.19519 | 8902 ft | 264 kts | 336° |
| 2026-05-06 22:29 | 33.47418 | -112.19932 | 9585 ft | 270 kts | 358° |
| 2026-05-06 22:29 | 33.49305 | -112.19859 | 10321 ft | 272 kts | 1° |
| 2026-05-06 22:29 | 33.51198 | -112.19757 | 11082 ft | 273 kts | 1° |
| 2026-05-06 22:29 | 33.53097 | -112.19702 | 11872 ft | 273 kts | 358° |
| 2026-05-06 22:30 | 33.55048 | -112.19811 | 12304 ft | 290 kts | 356° |
| 2026-05-06 22:30 | 33.57135 | -112.19981 | 12595 ft | 310 kts | 355° |
| 2026-05-06 22:30 | 33.59352 | -112.20171 | 12912 ft | 327 kts | 355° |
| 2026-05-06 22:30 | 33.61652 | -112.20374 | 13507 ft | 335 kts | 355° |
| 2026-05-06 22:31 | 33.63924 | -112.20853 | 14201 ft | 338 kts | 346° |
| 2026-05-06 22:31 | 33.66234 | -112.21598 | 14937 ft | 341 kts | 345° |
| 2026-05-06 22:31 | 33.68502 | -112.22360 | 15632 ft | 344 kts | 345° |
| 2026-05-06 22:31 | 33.70766 | -112.23106 | 16300 ft | 347 kts | 345° |
| 2026-05-06 22:32 | 33.73105 | -112.23866 | 17002 ft | 350 kts | 345° |
| 2026-05-06 22:32 | 33.75470 | -112.24627 | 17651 ft | 353 kts | 345° |
| 2026-05-06 22:32 | 33.77851 | -112.25392 | 18282 ft | 356 kts | 345° |
| 2026-05-06 22:32 | 33.80253 | -112.26165 | 18897 ft | 359 kts | 345° |
| 2026-05-06 22:33 | 33.82684 | -112.26949 | 19499 ft | 363 kts | 346° |
| 2026-05-06 22:33 | 33.85131 | -112.27749 | 20072 ft | 366 kts | 346° |
| 2026-05-06 22:33 | 33.87609 | -112.28554 | 20646 ft | 369 kts | 346° |
| 2026-05-06 22:33 | 33.90104 | -112.29355 | 21202 ft | 372 kts | 346° |
| 2026-05-06 22:34 | 33.92583 | -112.30154 | 21738 ft | 376 kts | 346° |
| 2026-05-06 22:34 | 33.95125 | -112.30975 | 22264 ft | 379 kts | 346° |
| 2026-05-06 22:34 | 33.97678 | -112.31800 | 22777 ft | 382 kts | 346° |
| 2026-05-06 22:34 | 34.00254 | -112.32637 | 23255 ft | 385 kts | 346° |
| 2026-05-06 22:35 | 34.02770 | -112.33777 | 23752 ft | 391 kts | 334° |
| 2026-05-06 22:35 | 34.05033 | -112.35628 | 24244 ft | 396 kts | 324° |
| 2026-05-06 22:35 | 34.07161 | -112.37770 | 24711 ft | 400 kts | 322° |
| 2026-05-06 22:35 | 34.09283 | -112.39957 | 25157 ft | 402 kts | 322° |
| 2026-05-06 22:36 | 34.11421 | -112.42138 | 25607 ft | 403 kts | 323° |
| 2026-05-06 22:36 | 34.13575 | -112.44318 | 26123 ft | 403 kts | 323° |
| 2026-05-06 22:36 | 34.15723 | -112.46486 | 26687 ft | 402 kts | 323° |
| 2026-05-06 22:36 | 34.17860 | -112.48649 | 27205 ft | 400 kts | 323° |
| 2026-05-06 22:37 | 34.19996 | -112.50801 | 27693 ft | 399 kts | 323° |
| 2026-05-06 22:37 | 34.22134 | -112.52953 | 28017 ft | 400 kts | 323° |
| 2026-05-06 22:37 | 34.26357 | -112.57214 | 28092 ft | 398 kts | 323° |
| 2026-05-06 22:38 | 34.30607 | -112.61511 | 28083 ft | 398 kts | 323° |
| 2026-05-06 22:38 | 34.34855 | -112.65808 | 28084 ft | 397 kts | 323° |
| 2026-05-06 22:39 | 34.39082 | -112.70104 | 28092 ft | 396 kts | 323° |
| 2026-05-06 22:39 | 34.43306 | -112.74397 | 28100 ft | 396 kts | 323° |
| 2026-05-06 22:40 | 34.47492 | -112.78654 | 28101 ft | 396 kts | 323° |
| 2026-05-06 22:40 | 34.51711 | -112.82948 | 28100 ft | 395 kts | 323° |
| 2026-05-06 22:41 | 34.58014 | -112.89374 | 28101 ft | 394 kts | 324° |
| 2026-05-06 22:42 | 34.62213 | -112.93651 | 28093 ft | 394 kts | 324° |
| 2026-05-06 22:42 | 34.66375 | -112.97910 | 28090 ft | 393 kts | 324° |
| 2026-05-06 22:43 | 34.70551 | -113.02203 | 28083 ft | 393 kts | 324° |
| 2026-05-06 22:43 | 34.74735 | -113.06501 | 28074 ft | 393 kts | 324° |
| 2026-05-06 22:44 | 34.78589 | -113.11244 | 28100 ft | 397 kts | 316° |
| 2026-05-06 22:44 | 34.82370 | -113.16083 | 28097 ft | 396 kts | 319° |
| 2026-05-06 22:45 | 34.85927 | -113.20551 | 28100 ft | 396 kts | 318° |
| 2026-05-06 22:45 | 34.89752 | -113.25398 | 28093 ft | 396 kts | 318° |
| 2026-05-06 22:46 | 34.93545 | -113.30235 | 28087 ft | 394 kts | 318° |
| 2026-05-06 22:46 | 34.96046 | -113.33415 | 28090 ft | 394 kts | 318° |
| 2026-05-06 22:47 | 34.96473 | -113.33957 | 28090 ft | 394 kts | 318° |
| 2026-05-06 22:47 | 35.00375 | -113.38610 | 28081 ft | 390 kts | 324° |
| 2026-05-06 22:48 | 35.04568 | -113.42817 | 28078 ft | 390 kts | 325° |
| 2026-05-06 22:48 | 35.08759 | -113.47025 | 28083 ft | 390 kts | 325° |
| 2026-05-06 22:49 | 35.12942 | -113.51250 | 28085 ft | 389 kts | 325° |
| 2026-05-06 22:49 | 35.17093 | -113.55424 | 27982 ft | 381 kts | 325° |
| 2026-05-06 22:49 | 35.19105 | -113.57463 | 27728 ft | 371 kts | 325° |
| 2026-05-06 22:50 | 35.21079 | -113.59461 | 27495 ft | 367 kts | 325° |
| 2026-05-06 22:50 | 35.23019 | -113.61424 | 27250 ft | 366 kts | 325° |
| 2026-05-06 22:50 | 35.24981 | -113.63404 | 26998 ft | 364 kts | 325° |
| 2026-05-06 22:50 | 35.26926 | -113.65372 | 26664 ft | 362 kts | 325° |
| 2026-05-06 22:51 | 35.28854 | -113.67327 | 26252 ft | 358 kts | 325° |
| 2026-05-06 22:51 | 35.30769 | -113.69269 | 25836 ft | 355 kts | 325° |
| 2026-05-06 22:51 | 35.32663 | -113.71184 | 25425 ft | 352 kts | 325° |
| 2026-05-06 22:51 | 35.34503 | -113.73049 | 25034 ft | 349 kts | 324° |
| 2026-05-06 22:52 | 35.36362 | -113.74938 | 24631 ft | 345 kts | 324° |
| 2026-05-06 22:52 | 35.38205 | -113.76814 | 24239 ft | 342 kts | 324° |
| 2026-05-06 22:52 | 35.40027 | -113.78672 | 23844 ft | 339 kts | 324° |
| 2026-05-06 22:52 | 35.41838 | -113.80511 | 23463 ft | 336 kts | 324° |
| 2026-05-06 22:53 | 35.43629 | -113.82336 | 23068 ft | 333 kts | 324° |
| 2026-05-06 22:53 | 35.45401 | -113.84142 | 22684 ft | 330 kts | 324° |
| 2026-05-06 22:53 | 35.47156 | -113.85931 | 22306 ft | 327 kts | 324° |
| 2026-05-06 22:53 | 35.48895 | -113.87705 | 21931 ft | 323 kts | 324° |
| 2026-05-06 22:54 | 35.50613 | -113.89457 | 21563 ft | 320 kts | 324° |
| 2026-05-06 22:54 | 35.52291 | -113.91175 | 21202 ft | 316 kts | 324° |
| 2026-05-06 22:54 | 35.53993 | -113.92917 | 20835 ft | 313 kts | 324° |
| 2026-05-06 22:54 | 35.55632 | -113.94593 | 20479 ft | 309 kts | 324° |
| 2026-05-06 22:55 | 35.57281 | -113.96280 | 20103 ft | 306 kts | 324° |
| 2026-05-06 22:55 | 35.58904 | -113.97940 | 19745 ft | 302 kts | 324° |
| 2026-05-06 22:55 | 35.60510 | -113.99592 | 19400 ft | 299 kts | 324° |
| 2026-05-06 22:55 | 35.62094 | -114.01224 | 19047 ft | 295 kts | 324° |
| 2026-05-06 22:56 | 35.63664 | -114.02843 | 18706 ft | 292 kts | 323° |
| 2026-05-06 22:56 | 35.65223 | -114.04443 | 18374 ft | 291 kts | 324° |
| 2026-05-06 22:56 | 35.66772 | -114.06034 | 18032 ft | 289 kts | 324° |
| 2026-05-06 22:56 | 35.68318 | -114.07608 | 17680 ft | 287 kts | 324° |
| 2026-05-06 22:57 | 35.69833 | -114.09155 | 17344 ft | 286 kts | 323° |
| 2026-05-06 22:57 | 35.71355 | -114.10716 | 17011 ft | 284 kts | 323° |
| 2026-05-06 22:57 | 35.72870 | -114.12271 | 16681 ft | 283 kts | 323° |
| 2026-05-06 22:57 | 35.74376 | -114.13820 | 16364 ft | 281 kts | 323° |
| 2026-05-06 22:58 | 35.75807 | -114.15473 | 16027 ft | 283 kts | 312° |
| 2026-05-06 22:58 | 35.76884 | -114.17519 | 15706 ft | 285 kts | 302° |
| 2026-05-06 22:58 | 35.77820 | -114.19672 | 15380 ft | 284 kts | 301° |
| 2026-05-06 22:58 | 35.78745 | -114.21818 | 15060 ft | 282 kts | 301° |
| 2026-05-06 22:59 | 35.79670 | -114.23940 | 14728 ft | 281 kts | 301° |
| 2026-05-06 22:59 | 35.80595 | -114.26054 | 14402 ft | 279 kts | 301° |
| 2026-05-06 22:59 | 35.81515 | -114.28155 | 14080 ft | 278 kts | 301° |
| 2026-05-06 22:59 | 35.82422 | -114.30214 | 13759 ft | 276 kts | 301° |
| 2026-05-06 23:00 | 35.83335 | -114.32289 | 13435 ft | 275 kts | 301° |
| 2026-05-06 23:00 | 35.84338 | -114.34278 | 13120 ft | 272 kts | 309° |
| 2026-05-06 23:00 | 35.85482 | -114.36132 | 12807 ft | 271 kts | 310° |
| 2026-05-06 23:00 | 35.86592 | -114.37898 | 12500 ft | 269 kts | 310° |
| 2026-05-06 23:01 | 35.87736 | -114.39716 | 12196 ft | 268 kts | 309° |
| 2026-05-06 23:01 | 35.88877 | -114.41527 | 11884 ft | 267 kts | 309° |
| 2026-05-06 23:01 | 35.90012 | -114.43333 | 11577 ft | 265 kts | 309° |
| 2026-05-06 23:01 | 35.91135 | -114.45133 | 11266 ft | 265 kts | 309° |
| 2026-05-06 23:02 | 35.92255 | -114.46930 | 10960 ft | 264 kts | 309° |
| 2026-05-06 23:02 | 35.93376 | -114.48729 | 10649 ft | 264 kts | 309° |
| 2026-05-06 23:02 | 35.94494 | -114.50526 | 10354 ft | 264 kts | 309° |
| 2026-05-06 23:02 | 35.95611 | -114.52322 | 10056 ft | 264 kts | 309° |
| 2026-05-06 23:03 | 35.96725 | -114.54121 | 9754 ft | 263 kts | 309° |
| 2026-05-06 23:03 | 35.97827 | -114.55913 | 9452 ft | 262 kts | 308° |
| 2026-05-06 23:03 | 35.98930 | -114.57708 | 9151 ft | 262 kts | 308° |
| 2026-05-06 23:03 | 36.00029 | -114.59493 | 8853 ft | 261 kts | 308° |
| 2026-05-06 23:04 | 36.01113 | -114.61254 | 8554 ft | 260 kts | 309° |
| 2026-05-06 23:04 | 36.02225 | -114.63058 | 8249 ft | 260 kts | 308° |
| 2026-05-06 23:04 | 36.03295 | -114.64801 | 8017 ft | 253 kts | 308° |
| 2026-05-06 23:04 | 36.04269 | -114.66574 | 7913 ft | 249 kts | 303° |
| 2026-05-06 23:05 | 36.05171 | -114.68401 | 7921 ft | 249 kts | 303° |
| 2026-05-06 23:05 | 36.06064 | -114.70229 | 7937 ft | 249 kts | 303° |
| 2026-05-06 23:05 | 36.06943 | -114.72072 | 7946 ft | 249 kts | 298° |
| 2026-05-06 23:05 | 36.07401 | -114.74141 | 7824 ft | 253 kts | 276° |
| 2026-05-06 23:06 | 36.07417 | -114.76316 | 7473 ft | 252 kts | 271° |
| 2026-05-06 23:06 | 36.07388 | -114.78473 | 7098 ft | 250 kts | 271° |
| 2026-05-06 23:06 | 36.07366 | -114.80622 | 6721 ft | 250 kts | 272° |
| 2026-05-06 23:06 | 36.07354 | -114.82767 | 6349 ft | 249 kts | 272° |
| 2026-05-06 23:07 | 36.07347 | -114.84896 | 5990 ft | 247 kts | 272° |
| 2026-05-06 23:07 | 36.07343 | -114.87008 | 5679 ft | 242 kts | 272° |
| 2026-05-06 23:07 | 36.07345 | -114.89048 | 5494 ft | 231 kts | 271° |
| 2026-05-06 23:07 | 36.07348 | -114.90964 | 5366 ft | 213 kts | 272° |
| 2026-05-06 23:08 | 36.07371 | -114.92747 | 5174 ft | 203 kts | 272° |
| 2026-05-06 23:08 | 36.07376 | -114.94457 | 4926 ft | 195 kts | 273° |
| 2026-05-06 23:08 | 36.07376 | -114.96102 | 4668 ft | 188 kts | 273° |
| 2026-05-06 23:08 | 36.07376 | -114.97683 | 4458 ft | 180 kts | 273° |
| 2026-05-06 23:09 | 36.07375 | -114.99215 | 4219 ft | 176 kts | 273° |
| 2026-05-06 23:09 | 36.07374 | -115.00685 | 3987 ft | 168 kts | 273° |
| 2026-05-06 23:09 | 36.07373 | -115.02049 | 3761 ft | 151 kts | 273° |
| 2026-05-06 23:09 | 36.07372 | -115.03322 | 3556 ft | 150 kts | 273° |
| 2026-05-06 23:10 | 36.07371 | -115.04607 | 3360 ft | 149 kts | 273° |
| 2026-05-06 23:10 | 36.07370 | -115.05888 | 3162 ft | 149 kts | 273° |
| 2026-05-06 23:10 | 36.07369 | -115.07168 | 2959 ft | 149 kts | 272° |
| 2026-05-06 23:10 | 36.07369 | -115.08463 | 2760 ft | 152 kts | 270° |
| 2026-05-06 23:11 | 36.07365 | -115.09773 | 2518 ft | 152 kts | 270° |
| 2026-05-06 23:11 | 36.07373 | -115.11074 | 2293 ft | 150 kts | 270° |
| 2026-05-06 23:11 | 36.07371 | -115.12347 | 2135 ft | 146 kts | 269° |
| 2026-05-06 23:11 | 36.07369 | -115.13576 | 2082 ft | 139 kts | 270° |
| 2026-05-06 23:12 | 36.07369 | -115.14361 | 2095 ft | 73 kts | 272° |
| 2026-05-06 23:12 | 36.07384 | -115.14820 | 2100 ft | 34 kts | 295° |
| 2026-05-06 23:12 | 36.07475 | -115.15064 | 2105 ft | 26 kts | 302° |
| 2026-05-06 23:12 | 36.07634 | -115.15186 | 2115 ft | 28 kts | 334° |
| 2026-05-06 23:13 | 36.07795 | -115.15252 | 2107 ft | 21 kts | 55° |
| 2026-05-06 23:13 | 36.07800 | -115.15137 | 2106 ft | 14 kts | 92° |
| 2026-05-06 23:13 | 36.07797 | -115.14998 | 2105 ft | 19 kts | 92° |
| 2026-05-06 23:13 | 36.07786 | -115.14815 | 2104 ft | 24 kts | 95° |
| 2026-05-06 23:14 | 36.07769 | -115.14592 | 2102 ft | 28 kts | 95° |
| 2026-05-06 23:14 | 36.07755 | -115.14339 | 2102 ft | 23 kts | 92° |
| 2026-05-06 23:14 | 36.07815 | -115.14233 | 2100 ft | 20 kts | 1° |
| 2026-05-06 23:14 | 36.07968 | -115.14242 | 2101 ft | 24 kts | 360° |
| 2026-05-06 23:15 | 36.08148 | -115.14241 | 2101 ft | 28 kts | 0° |
| 2026-05-06 23:15 | 36.08328 | -115.14168 | 2098 ft | 31 kts | 53° |
| 2026-05-06 23:15 | 36.08431 | -115.14019 | 2098 ft | 15 kts | 64° |
| 2026-05-06 23:15 | 36.08444 | -115.13895 | 2098 ft | 11 kts | 92° |
| 2026-05-06 23:16 | 36.08443 | -115.13824 | 2098 ft | 2 kts | 92° |
| 2026-05-06 23:16 | 36.08441 | -115.13775 | 2098 ft | 9 kts | 91° |
| 2026-05-06 23:16 | 36.08443 | -115.13669 | 2098 ft | 16 kts | 88° |
| 2026-05-06 23:16 | 36.08448 | -115.13570 | 2098 ft | 9 kts | 67° |
| 2026-05-06 23:17 | 36.08500 | -115.13560 | 2098 ft | 3 kts | 10° |
| 2026-05-06 23:17 | 36.08521 | -115.13561 | 2098 ft | 0 kts | 0° |
| 2026-05-06 23:17 | 36.08527 | -115.13561 | 2098 ft | 0 kts | 0° |